Time;durP1;ratioP1;P1;durP2;ratioP2;P2;SDS_P1;SDS_P2;PMS_P1;PMS_P2;Temp;Humidity;BMP_temperature;BMP_pressure;BME280_temperature;BME280_humidity;BME280_pressure;Samples;Min_cycle;Max_cycle;Signal;HPM_P1;HPM_P2
2022/11/28 00:01:20;;;;;;;;;8.75;8.75;;;;;-147.17;100.00;-15917.19;5006119;28;51050;-45
2022/11/28 00:03:46;;;;;;;;;10.75;9.75;;;;;-147.17;100.00;-15917.19;5029217;28;51181;-46
2022/11/28 00:06:11;;;;;;;;;15.00;12.50;;;;;-147.17;100.00;-15917.19;5021945;28;50924;-46
2022/11/28 00:08:37;;;;;;;;;6.67;6.33;;;;;-147.17;100.00;-15917.19;5021430;28;51712;-44
2022/11/28 00:11:07;;;;;;;;;16.50;15.00;;;;;-147.17;100.00;-15917.19;5028756;28;50962;-45
2022/11/28 00:13:33;;;;;;;;;12.00;10.00;;;;;-147.17;100.00;-15917.19;5002989;28;52047;-46
2022/11/28 00:16:01;;;;;;;;;11.25;10.25;;;;;-147.17;100.00;-15917.19;5024619;28;51257;-47
2022/11/28 00:18:27;;;;;;;;;8.25;8.25;;;;;-147.17;100.00;-15917.19;5026068;28;54097;-46
2022/11/28 00:21:00;;;;;;;;;11.00;10.75;;;;;-147.17;100.00;-15917.19;5022327;28;51052;-46
2022/11/28 00:23:26;;;;;;;;;10.00;10.00;;;;;-147.17;100.00;-15917.19;5011006;28;51955;-48
2022/11/28 00:26:08;;;;;;;;;12.50;10.25;;;;;-147.17;100.00;-15917.19;4997245;28;51419;-44
2022/11/28 00:28:33;;;;;;;;;11.75;11.00;;;;;-147.17;100.00;-15917.19;5014600;28;52228;-44
2022/11/28 00:30:59;;;;;;;;;11.00;11.00;;;;;-147.17;100.00;-15917.19;5018574;28;51336;-45
2022/11/28 00:33:24;;;;;;;;;9.00;9.00;;;;;-147.17;100.00;-15917.19;5020002;28;51993;-45
2022/11/28 00:35:50;;;;;;;;;9.00;8.00;;;;;-147.17;100.00;-15917.19;5016694;28;51515;-46
2022/11/28 00:38:15;;;;;;;;;9.00;8.75;;;;;-147.17;100.00;-15917.19;5013908;28;51379;-48
2022/11/28 00:40:41;;;;;;;;;17.00;16.00;;;;;-147.17;100.00;-15917.19;5015130;28;51389;-45
2022/11/28 00:43:06;;;;;;;;;10.00;9.75;;;;;-147.17;100.00;-15917.19;5014544;28;52143;-45
2022/11/28 00:45:32;;;;;;;;;10.25;9.75;;;;;-147.17;100.00;-15917.19;4997541;28;52393;-46
2022/11/28 00:47:57;;;;;;;;;13.50;11.75;;;;;-147.17;100.00;-15917.19;5013981;28;51980;-47
2022/11/28 00:50:23;;;;;;;;;10.00;10.00;;;;;-147.17;100.00;-15917.19;5015237;28;51224;-44
2022/11/28 00:52:49;;;;;;;;;14.00;12.00;;;;;-147.17;100.00;-15917.19;5020036;28;52629;-45
2022/11/28 00:55:14;;;;;;;;;15.75;15.50;;;;;-147.17;100.00;-15917.19;5024515;28;51320;-46
2022/11/28 00:57:39;;;;;;;;;11.00;11.00;;;;;-147.17;100.00;-15917.19;5009409;28;52168;-45
2022/11/28 01:00:06;;;;;;;;;9.33;9.00;;;;;-147.17;100.00;-15917.19;5027614;28;51694;-43
2022/11/28 01:02:32;;;;;;;;;8.00;8.00;;;;;-147.17;100.00;-15917.19;5028241;28;51075;-47
2022/11/28 01:04:58;;;;;;;;;9.75;8.75;;;;;-147.17;100.00;-15917.19;5033770;28;51219;-45
2022/11/28 01:07:23;;;;;;;;;9.33;9.00;;;;;-147.17;100.00;-15917.19;5027234;28;53448;-45
2022/11/28 01:09:49;;;;;;;;;8.00;7.33;;;;;-147.17;100.00;-15917.19;5004951;28;51180;-45
2022/11/28 01:12:14;;;;;;;;;8.00;8.00;;;;;-147.17;100.00;-15917.19;5025911;28;51125;-45
2022/11/28 01:14:39;;;;;;;;;7.67;7.00;;;;;-147.17;100.00;-15917.19;5018407;28;51445;-45
2022/11/28 01:17:05;;;;;;;;;10.00;9.25;;;;;-147.17;100.00;-15917.19;5022623;28;51597;-48
2022/11/28 01:19:30;;;;;;;;;7.25;7.00;;;;;-147.17;100.00;-15917.19;5030204;28;51208;-45
2022/11/28 01:21:55;;;;;;;;;9.75;9.25;;;;;-147.17;100.00;-15917.19;5029527;28;51342;-44
2022/11/28 01:24:21;;;;;;;;;7.67;7.67;;;;;-147.17;100.00;-15917.19;5003620;28;51083;-44
2022/11/28 01:26:46;;;;;;;;;8.00;8.00;;;;;-147.17;100.00;-15917.19;5004204;28;51945;-45
2022/11/28 01:29:12;;;;;;;;;8.33;7.33;;;;;-147.17;100.00;-15917.19;5026187;28;51247;-46
2022/11/28 01:31:37;;;;;;;;;10.00;8.67;;;;;-147.17;100.00;-15917.19;5024688;28;51208;-45
2022/11/28 01:34:03;;;;;;;;;8.67;8.67;;;;;-147.17;100.00;-15917.19;5011100;28;51513;-44
2022/11/28 01:36:29;;;;;;;;;8.33;7.00;;;;;-147.17;100.00;-15917.19;5029776;28;51256;-45
2022/11/28 01:38:54;;;;;;;;;8.67;8.00;;;;;-147.17;100.00;-15917.19;5012459;28;51184;-46
2022/11/28 01:41:22;;;;;;;;;9.00;8.00;;;;;-147.17;100.00;-15917.19;5026038;28;51642;-45
2022/11/28 01:44:28;;;;;;;;;9.75;9.75;;;;;-147.17;100.00;-15917.19;5013761;28;51125;-45
2022/11/28 01:46:53;;;;;;;;;8.25;7.25;;;;;-147.17;100.00;-15917.19;5028778;28;51890;-45
2022/11/28 01:49:18;;;;;;;;;11.67;9.00;;;;;-147.17;100.00;-15917.19;5029390;28;52939;-43
2022/11/28 01:51:48;;;;;;;;;8.00;8.00;;;;;-147.17;100.00;-15917.19;5017869;28;51489;-47
2022/11/28 01:54:17;;;;;;;;;9.00;8.33;;;;;-147.17;100.00;-15917.19;5019823;28;50896;-45
2022/11/28 01:57:03;;;;;;;;;10.67;10.00;;;;;-147.17;100.00;-15917.19;5024391;28;52263;-46
2022/11/28 01:59:34;;;;;;;;;12.00;10.25;;;;;-147.17;100.00;-15917.19;5021251;28;51283;-43
2022/11/28 02:02:02;;;;;;;;;9.33;9.33;;;;;-147.17;100.00;-15917.19;5024125;28;50882;-45
2022/11/28 02:04:27;;;;;;;;;8.50;8.00;;;;;-147.17;100.00;-15917.19;5029104;28;51048;-43
2022/11/28 02:06:54;;;;;;;;;7.33;7.33;;;;;-147.17;100.00;-15917.19;5022699;28;51144;-46
2022/11/28 02:09:19;;;;;;;;;9.75;9.75;;;;;-147.17;100.00;-15917.19;5021391;28;51309;-45
2022/11/28 02:12:21;;;;;;;;;10.33;10.33;;;;;-147.17;100.00;-15917.19;5021851;28;51221;-45
2022/11/28 02:15:24;;;;;;;;;9.00;9.00;;;;;-147.17;100.00;-15917.19;5029826;28;51418;-43
2022/11/28 02:17:57;;;;;;;;;12.00;10.00;;;;;-147.17;100.00;-15917.19;5017056;28;51705;-46
2022/11/28 02:20:46;;;;;;;;;9.25;9.00;;;;;-147.17;100.00;-15917.19;5031616;28;51066;-45
2022/11/28 02:23:36;;;;;;;;;10.75;10.75;;;;;-147.17;100.00;-15917.19;5031477;28;51246;-49
2022/11/28 02:26:36;;;;;;;;;9.00;9.00;;;;;-147.17;100.00;-15917.19;5015758;28;51070;-46
2022/11/28 02:29:39;;;;;;;;;12.50;11.75;;;;;-147.17;100.00;-15917.19;5002911;28;53770;-45
2022/11/28 02:32:35;;;;;;;;;9.25;9.00;;;;;-147.17;100.00;-15917.19;5029787;28;51065;-45
2022/11/28 02:35:19;;;;;;;;;9.00;8.00;;;;;-147.17;100.00;-15917.19;5030688;28;51163;-45
2022/11/28 02:37:56;;;;;;;;;9.00;8.00;;;;;-147.17;100.00;-15917.19;5014718;28;51320;-46
2022/11/28 02:40:47;;;;;;;;;10.50;9.50;;;;;-147.17;100.00;-15917.19;5029663;28;52022;-45
2022/11/28 02:43:28;;;;;;;;;8.25;8.25;;;;;-147.17;100.00;-15917.19;5030908;28;51058;-46
2022/11/28 02:46:15;;;;;;;;;8.00;8.00;;;;;-147.17;100.00;-15917.19;5032056;28;51143;-46
2022/11/28 02:48:58;;;;;;;;;9.25;9.00;;;;;-147.17;100.00;-15917.19;5030547;28;51094;-45
2022/11/28 02:51:40;;;;;;;;;11.25;10.75;;;;;-147.17;100.00;-15917.19;5003177;28;55613;-45
2022/11/28 02:54:10;;;;;;;;;10.75;10.00;;;;;-147.17;100.00;-15917.19;5033648;28;51049;-48
2022/11/28 02:56:35;;;;;;;;;10.25;10.00;;;;;-147.17;100.00;-15917.19;5029736;28;51211;-45
2022/11/28 02:59:00;;;;;;;;;10.00;9.00;;;;;-147.17;100.00;-15917.19;5020579;28;51108;-48
2022/11/28 03:01:33;;;;;;;;;11.00;11.00;;;;;-147.17;100.00;-15917.19;5016921;28;53136;-46
2022/11/28 03:03:58;;;;;;;;;7.75;7.25;;;;;-147.17;100.00;-15917.19;5032613;28;52767;-45
2022/11/28 03:07:00;;;;;;;;;12.50;11.25;;;;;-147.17;100.00;-15917.19;5021602;28;51217;-45
2022/11/28 03:09:56;;;;;;;;;5.75;5.75;;;;;-147.17;100.00;-15917.19;5007943;28;51005;-45
2022/11/28 03:12:31;;;;;;;;;11.00;10.00;;;;;-147.17;100.00;-15917.19;5033085;28;52141;-45
2022/11/28 03:15:00;;;;;;;;;9.75;9.50;;;;;-147.17;100.00;-15917.19;5014643;28;51187;-45
2022/11/28 03:17:49;;;;;;;;;9.75;9.75;;;;;-147.17;100.00;-15917.19;5031504;28;50959;-46
2022/11/28 03:20:29;;;;;;;;;12.00;10.00;;;;;-147.17;100.00;-15917.19;5027747;28;51538;-44
2022/11/28 03:23:01;;;;;;;;;9.25;8.50;;;;;-147.17;100.00;-15917.19;5029258;28;51132;-44
2022/11/28 03:25:42;;;;;;;;;10.25;10.25;;;;;-147.17;100.00;-15917.19;5030660;28;51170;-44
2022/11/28 03:28:18;;;;;;;;;12.00;10.75;;;;;-147.17;100.00;-15917.19;5012602;28;51076;-44
2022/11/28 03:30:53;;;;;;;;;6.75;6.50;;;;;-147.17;100.00;-15917.19;5028483;28;51140;-44
2022/11/28 03:33:21;;;;;;;;;12.75;11.00;;;;;-147.17;100.00;-15917.19;5025862;28;51127;-45
2022/11/28 03:35:55;;;;;;;;;10.00;8.50;;;;;-147.17;100.00;-15917.19;5025682;28;51042;-47
2022/11/28 03:38:27;;;;;;;;;11.00;10.00;;;;;-147.17;100.00;-15917.19;5026046;28;51042;-45
2022/11/28 03:40:57;;;;;;;;;11.00;10.25;;;;;-147.17;100.00;-15917.19;5031357;28;51091;-45
2022/11/28 03:43:28;;;;;;;;;11.25;10.00;;;;;-147.17;100.00;-15917.19;5028968;28;51109;-45
2022/11/28 03:46:01;;;;;;;;;11.50;11.25;;;;;-147.17;100.00;-15917.19;5024527;28;51278;-45
2022/11/28 03:48:34;;;;;;;;;10.75;10.75;;;;;-147.17;100.00;-15917.19;5025276;28;51198;-44
2022/11/28 03:51:19;;;;;;;;;11.25;11.00;;;;;-147.17;100.00;-15917.19;5029328;28;51275;-46
2022/11/28 03:53:52;;;;;;;;;11.33;10.00;;;;;-147.17;100.00;-15917.19;5020305;28;51974;-45
2022/11/28 03:56:39;;;;;;;;;11.25;10.75;;;;;-147.17;100.00;-15917.19;5028668;28;51183;-44
2022/11/28 03:59:19;;;;;;;;;12.00;11.25;;;;;-147.17;100.00;-15917.19;5022576;28;51114;-46
2022/11/28 04:02:10;;;;;;;;;11.00;11.00;;;;;-147.17;100.00;-15917.19;5028388;28;51057;-45
2022/11/28 04:04:51;;;;;;;;;13.25;11.75;;;;;-147.17;100.00;-15917.19;5004738;28;51374;-46
2022/11/28 04:07:31;;;;;;;;;10.00;9.00;;;;;-147.17;100.00;-15917.19;5020620;28;51022;-45
2022/11/28 04:10:07;;;;;;;;;14.75;13.75;;;;;-147.17;100.00;-15917.19;5031627;28;51145;-45
2022/11/28 04:13:10;;;;;;;;;16.25;15.00;;;;;-147.17;100.00;-15917.19;5030019;28;51465;-45
2022/11/28 04:15:46;;;;;;;;;13.00;11.75;;;;;-147.17;100.00;-15917.19;5012873;28;54390;-45
2022/11/28 04:18:30;;;;;;;;;12.75;11.50;;;;;-147.17;100.00;-15917.19;5003842;28;51173;-45
2022/11/28 04:21:10;;;;;;;;;13.00;12.50;;;;;-147.17;100.00;-15917.19;5015293;28;51192;-44
2022/11/28 04:23:39;;;;;;;;;12.50;10.75;;;;;-147.17;100.00;-15917.19;5023911;28;51137;-44
2022/11/28 04:26:12;;;;;;;;;13.25;12.25;;;;;-147.17;100.00;-15917.19;5020281;28;51788;-45
2022/11/28 04:28:39;;;;;;;;;14.25;13.25;;;;;-147.17;100.00;-15917.19;5030032;28;51191;-44
2022/11/28 04:31:07;;;;;;;;;13.00;12.00;;;;;-147.17;100.00;-15917.19;5004993;28;51205;-43
2022/11/28 04:33:38;;;;;;;;;10.50;9.00;;;;;-147.17;100.00;-15917.19;5033943;28;51243;-44
2022/11/28 04:36:06;;;;;;;;;15.00;14.00;;;;;-147.17;100.00;-15917.19;5023229;28;52287;-45
2022/11/28 04:38:33;;;;;;;;;11.00;11.00;;;;;-147.17;100.00;-15917.19;5027097;28;51197;-44
2022/11/28 04:41:09;;;;;;;;;12.50;11.75;;;;;-147.17;100.00;-15917.19;5022140;28;51155;-44
2022/11/28 04:43:41;;;;;;;;;10.50;10.50;;;;;-147.17;100.00;-15917.19;5029457;28;51367;-45
2022/11/28 04:46:11;;;;;;;;;15.00;12.00;;;;;-147.17;100.00;-15917.19;5020746;28;51762;-44
2022/11/28 04:48:37;;;;;;;;;16.00;12.00;;;;;-147.17;100.00;-15917.19;5030403;28;51226;-47
2022/11/28 04:51:21;;;;;;;;;12.00;12.00;;;;;-147.17;100.00;-15917.19;5032099;28;51044;-46
2022/11/28 04:53:59;;;;;;;;;12.25;11.75;;;;;-147.17;100.00;-15917.19;5019975;28;50975;-46
2022/11/28 04:56:33;;;;;;;;;12.75;12.00;;;;;-147.17;100.00;-15917.19;5021476;28;51504;-45
2022/11/28 04:58:59;;;;;;;;;10.25;9.75;;;;;-147.17;100.00;-15917.19;5001813;28;51323;-44
2022/11/28 05:01:28;;;;;;;;;13.25;13.25;;;;;-147.17;100.00;-15917.19;5011402;28;51827;-48
2022/11/28 05:03:54;;;;;;;;;12.25;10.75;;;;;-147.17;100.00;-15917.19;5015302;28;51428;-44
2022/11/28 05:06:25;;;;;;;;;13.25;12.00;;;;;-147.17;100.00;-15917.19;5014458;28;53838;-46
2022/11/28 05:08:50;;;;;;;;;11.00;10.50;;;;;-147.17;100.00;-15917.19;5030515;28;51806;-43
2022/11/28 05:11:16;;;;;;;;;10.00;10.00;;;;;-147.17;100.00;-15917.19;5032315;28;51590;-46
2022/11/28 05:13:41;;;;;;;;;13.00;11.00;;;;;-147.17;100.00;-15917.19;5032176;28;51264;-47
2022/11/28 05:16:08;;;;;;;;;14.75;11.50;;;;;-147.17;100.00;-15917.19;5031964;28;53085;-45
2022/11/28 05:18:33;;;;;;;;;13.50;11.25;;;;;-147.17;100.00;-15917.19;5016885;28;51198;-46
2022/11/28 05:20:58;;;;;;;;;13.00;11.75;;;;;-147.17;100.00;-15917.19;5017267;28;51134;-45
2022/11/28 05:23:24;;;;;;;;;15.50;14.25;;;;;-147.17;100.00;-15917.19;5012966;28;51415;-51
2022/11/28 05:25:49;;;;;;;;;14.50;12.75;;;;;-147.17;100.00;-15917.19;5027988;28;55516;-45
2022/11/28 05:28:14;;;;;;;;;13.25;11.00;;;;;-147.17;100.00;-15917.19;5027097;28;51133;-45
2022/11/28 05:30:40;;;;;;;;;12.75;12.00;;;;;-147.17;100.00;-15917.19;5014563;28;51225;-46
2022/11/28 05:33:05;;;;;;;;;11.75;11.50;;;;;-147.17;100.00;-15917.19;5033162;28;51376;-46
2022/11/28 05:35:30;;;;;;;;;17.00;11.00;;;;;-147.17;100.00;-15917.19;5025905;28;51952;-46
2022/11/28 05:37:56;;;;;;;;;12.00;11.50;;;;;-147.17;100.00;-15917.19;5025034;28;51230;-46
2022/11/28 05:40:21;;;;;;;;;16.00;15.00;;;;;-147.17;100.00;-15917.19;5029821;28;50983;-45
2022/11/28 05:42:47;;;;;;;;;13.25;13.25;;;;;-147.17;100.00;-15917.19;5013527;28;51221;-45
2022/11/28 05:45:12;;;;;;;;;16.25;13.75;;;;;-147.17;100.00;-15917.19;5019055;28;52395;-47
2022/11/28 05:47:37;;;;;;;;;13.25;11.50;;;;;-147.17;100.00;-15917.19;5031069;28;50994;-46
2022/11/28 05:50:03;;;;;;;;;12.25;11.75;;;;;-147.17;100.00;-15917.19;5028914;28;51499;-45
2022/11/28 05:52:31;;;;;;;;;12.00;11.25;;;;;-147.17;100.00;-15917.19;5019454;28;51065;-45
2022/11/28 05:54:57;;;;;;;;;14.00;13.25;;;;;-147.17;100.00;-15917.19;5030493;28;52291;-46
2022/11/28 05:57:22;;;;;;;;;15.25;10.25;;;;;-147.17;100.00;-15917.19;5023009;28;51212;-45
2022/11/28 05:59:48;;;;;;;;;14.25;14.00;;;;;-147.17;100.00;-15917.19;5017738;28;51069;-45
2022/11/28 06:02:13;;;;;;;;;15.00;13.25;;;;;-147.17;100.00;-15917.19;5025045;28;51255;-44
2022/11/28 06:04:40;;;;;;;;;15.50;13.25;;;;;-147.17;100.00;-15917.19;5025145;28;51777;-47
2022/11/28 06:07:06;;;;;;;;;17.25;15.75;;;;;-147.17;100.00;-15917.19;5027061;28;51182;-46
2022/11/28 06:09:31;;;;;;;;;13.50;12.00;;;;;-147.17;100.00;-15917.19;5027989;28;51093;-45
2022/11/28 06:11:56;;;;;;;;;17.50;15.50;;;;;-147.17;100.00;-15917.19;5004648;28;51198;-46
2022/11/28 06:14:22;;;;;;;;;15.75;13.00;;;;;-147.17;100.00;-15917.19;5014000;28;50978;-45
2022/11/28 06:16:47;;;;;;;;;12.25;11.00;;;;;-147.17;100.00;-15917.19;5023268;28;51287;-45
2022/11/28 06:19:12;;;;;;;;;14.25;13.00;;;;;-147.17;100.00;-15917.19;5022348;28;51321;-45
2022/11/28 06:21:38;;;;;;;;;11.25;10.50;;;;;-147.17;100.00;-15917.19;5007955;28;51235;-46
2022/11/28 06:24:04;;;;;;;;;12.00;11.00;;;;;-147.17;100.00;-15917.19;5027319;28;52200;-45
2022/11/28 06:26:29;;;;;;;;;15.50;13.50;;;;;-147.17;100.00;-15917.19;5012101;28;51130;-46
2022/11/28 06:28:55;;;;;;;;;15.00;12.50;;;;;-147.17;100.00;-15917.19;5023775;28;51163;-49
2022/11/28 06:31:24;;;;;;;;;11.50;10.00;;;;;-147.17;100.00;-15917.19;5014228;28;51077;-46
2022/11/28 06:33:49;;;;;;;;;14.75;12.75;;;;;-147.17;100.00;-15917.19;5016860;28;52229;-45
2022/11/28 06:36:17;;;;;;;;;13.00;12.75;;;;;-147.17;100.00;-15917.19;5026252;28;51010;-45
2022/11/28 06:38:42;;;;;;;;;14.33;13.00;;;;;-147.17;100.00;-15917.19;5029353;28;51026;-46
2022/11/28 06:41:12;;;;;;;;;16.00;15.50;;;;;-147.17;100.00;-15917.19;5007048;28;51077;-45
2022/11/28 06:43:38;;;;;;;;;14.50;12.75;;;;;-147.17;100.00;-15917.19;5012829;28;52167;-46
2022/11/28 06:46:03;;;;;;;;;17.00;13.25;;;;;-147.17;100.00;-15917.19;5008002;28;51197;-45
2022/11/28 06:48:29;;;;;;;;;10.25;10.25;;;;;-147.17;100.00;-15917.19;5024554;28;51239;-46
2022/11/28 06:51:01;;;;;;;;;15.00;12.50;;;;;-147.17;100.00;-15917.19;5021114;28;51367;-46
2022/11/28 06:53:27;;;;;;;;;15.33;12.00;;;;;-147.17;100.00;-15917.19;5022699;28;51216;-46
2022/11/28 06:55:52;;;;;;;;;14.67;13.00;;;;;-147.17;100.00;-15917.19;5029725;28;51244;-46
2022/11/28 06:58:17;;;;;;;;;11.00;9.33;;;;;-147.17;100.00;-15917.19;5008431;28;51304;-45
2022/11/28 07:00:44;;;;;;;;;11.00;11.00;;;;;-147.17;100.00;-15917.19;5022102;28;51101;-45
2022/11/28 07:03:11;;;;;;;;;14.67;13.33;;;;;-147.17;100.00;-15917.19;5011319;28;53166;-44
2022/11/28 07:05:37;;;;;;;;;16.25;15.50;;;;;-147.17;100.00;-15917.19;5011674;28;51042;-45
2022/11/28 07:08:02;;;;;;;;;21.25;19.25;;;;;-147.17;100.00;-15917.19;5022504;28;51634;-45
2022/11/28 07:10:27;;;;;;;;;8.50;8.50;;;;;-147.17;100.00;-15917.19;4965679;28;51182;-44
2022/11/28 07:12:54;;;;;;;;;39.00;36.00;;;;;-147.17;100.00;-15917.19;5017590;28;52209;-46
2022/11/28 07:15:20;;;;;;;;;12.67;11.00;;;;;-147.17;100.00;-15917.19;4998738;28;51174;-46
2022/11/28 07:17:45;;;;;;;;;11.00;10.00;;;;;-147.17;100.00;-15917.19;5005268;28;51313;-47
2022/11/28 07:20:11;;;;;;;;;14.25;12.50;;;;;-147.17;100.00;-15917.19;5015076;28;51302;-46
2022/11/28 07:22:37;;;;;;;;;16.25;16.00;;;;;-147.17;100.00;-15917.19;5009221;28;53921;-46
2022/11/28 07:25:02;;;;;;;;;17.25;16.00;;;;;-147.17;100.00;-15917.19;5025607;28;51354;-46
2022/11/28 07:27:28;;;;;;;;;15.00;14.50;;;;;-147.17;100.00;-15917.19;5018741;28;52434;-45
2022/11/28 07:29:53;;;;;;;;;12.00;11.50;;;;;-147.17;100.00;-15917.19;5019171;28;51471;-46
2022/11/28 07:32:18;;;;;;;;;10.75;10.00;;;;;-147.17;100.00;-15917.19;5026264;28;52097;-46
2022/11/28 07:34:44;;;;;;;;;10.33;9.00;;;;;-147.17;100.00;-15917.19;5013964;28;51069;-45
2022/11/28 07:37:09;;;;;;;;;9.00;9.00;;;;;-147.17;100.00;-15917.19;5027984;28;51232;-45
2022/11/28 07:39:34;;;;;;;;;11.33;8.33;;;;;-147.17;100.00;-15917.19;5030904;28;51195;-45
2022/11/28 07:42:00;;;;;;;;;9.33;8.00;;;;;-147.17;100.00;-15917.19;5016803;28;51258;-45
2022/11/28 07:44:25;;;;;;;;;11.00;10.33;;;;;-147.17;100.00;-15917.19;5031883;28;52977;-45
2022/11/28 07:46:50;;;;;;;;;11.00;10.00;;;;;-147.17;100.00;-15917.19;5028398;28;51190;-48
2022/11/28 07:49:16;;;;;;;;;12.75;12.25;;;;;-147.17;100.00;-15917.19;5015182;28;50938;-45
2022/11/28 07:51:41;;;;;;;;;10.00;9.75;;;;;-147.17;100.00;-15917.19;5015417;28;51287;-46
2022/11/28 07:54:07;;;;;;;;;11.00;10.75;;;;;-147.17;100.00;-15917.19;5016424;28;51221;-45
2022/11/28 07:56:35;;;;;;;;;12.50;10.00;;;;;-147.17;100.00;-15917.19;5005098;28;52296;-46
2022/11/28 07:59:01;;;;;;;;;11.00;10.67;;;;;-147.17;100.00;-15917.19;5023715;28;51399;-46
2022/11/28 08:01:29;;;;;;;;;11.00;11.00;;;;;-147.17;100.00;-15917.19;5024623;28;51205;-45
2022/11/28 08:03:55;;;;;;;;;10.00;9.00;;;;;-147.17;100.00;-15917.19;5026367;28;51280;-45
2022/11/28 08:06:24;;;;;;;;;19.75;19.00;;;;;-147.17;100.00;-15917.19;5029579;28;52292;-45
2022/11/28 08:08:52;;;;;;;;;13.00;13.00;;;;;-147.17;100.00;-15917.19;5029106;28;51288;-44
2022/11/28 08:11:19;;;;;;;;;16.00;13.50;;;;;-147.17;100.00;-15917.19;5009075;28;53311;-46
2022/11/28 08:13:45;;;;;;;;;22.50;17.25;;;;;-147.17;100.00;-15917.19;5022966;28;51029;-45
2022/11/28 08:16:14;;;;;;;;;30.00;23.25;;;;;-147.17;100.00;-15917.19;5024766;28;51118;-45
2022/11/28 08:18:39;;;;;;;;;11.00;11.00;;;;;-147.17;100.00;-15917.19;5029435;28;51413;-45
2022/11/28 08:21:10;;;;;;;;;39.50;31.25;;;;;-147.17;100.00;-15917.19;5028221;28;51910;-47
2022/11/28 08:23:36;;;;;;;;;75.75;53.50;;;;;-147.17;100.00;-15917.19;5030619;28;51208;-46
2022/11/28 08:26:04;;;;;;;;;26.50;22.75;;;;;-147.17;100.00;-15917.19;5012352;28;51251;-45
2022/11/28 08:28:30;;;;;;;;;23.75;19.25;;;;;-147.17;100.00;-15917.19;5011424;28;51200;-46
2022/11/28 08:30:56;;;;;;;;;19.50;17.00;;;;;-147.17;100.00;-15917.19;5025949;28;50998;-45
2022/11/28 08:33:24;;;;;;;;;10.67;10.00;;;;;-147.17;100.00;-15917.19;5029748;28;51558;-45
2022/11/28 08:35:50;;;;;;;;;19.50;18.00;;;;;-147.17;100.00;-15917.19;5028182;28;51630;-44
2022/11/28 08:38:16;;;;;;;;;10.67;10.00;;;;;-147.17;100.00;-15917.19;5009801;28;51343;-44
2022/11/28 08:40:41;;;;;;;;;12.00;11.00;;;;;-147.17;100.00;-15917.19;5031667;28;50982;-45
2022/11/28 08:43:06;;;;;;;;;55.50;43.00;;;;;-147.17;100.00;-15917.19;5020699;28;51196;-48
2022/11/28 08:45:35;;;;;;;;;21.75;18.00;;;;;-147.17;100.00;-15917.19;5023520;28;51869;-46
2022/11/28 08:48:00;;;;;;;;;21.00;16.75;;;;;-147.17;100.00;-15917.19;5029685;28;51665;-45
2022/11/28 08:50:26;;;;;;;;;24.50;23.75;;;;;-147.17;100.00;-15917.19;5025275;28;51512;-46
2022/11/28 08:52:51;;;;;;;;;25.75;24.00;;;;;-147.17;100.00;-15917.19;5020610;28;51081;-45
2022/11/28 08:55:16;;;;;;;;;31.75;24.25;;;;;-147.17;100.00;-15917.19;5015316;28;51119;-45
2022/11/28 08:57:42;;;;;;;;;13.00;13.00;;;;;-147.17;100.00;-15917.19;5007050;28;51156;-45
2022/11/28 09:00:08;;;;;;;;;18.00;16.00;;;;;-147.17;100.00;-15917.19;5024322;28;51274;-46
2022/11/28 09:02:33;;;;;;;;;16.25;14.00;;;;;-147.17;100.00;-15917.19;5279398;22;51081;-53
2022/11/28 09:04:58;;;;;;;;;27.75;22.25;;;;;-147.17;100.00;-15917.19;5028517;28;54698;-50
2022/11/28 09:07:24;;;;;;;;;19.50;16.25;;;;;-147.17;100.00;-15917.19;5030045;28;51346;-53
2022/11/28 09:09:49;;;;;;;;;49.75;36.50;;;;;-147.17;100.00;-15917.19;5031272;28;51775;-54
2022/11/28 09:12:15;;;;;;;;;39.75;25.50;;;;;-147.17;100.00;-15917.19;5026804;28;53024;-54
2022/11/28 09:14:40;;;;;;;;;18.50;16.50;;;;;-147.17;100.00;-15917.19;5029681;28;51091;-54
2022/11/28 09:17:05;;;;;;;;;24.00;22.00;;;;;-147.17;100.00;-15917.19;5029817;28;51489;-54
2022/11/28 09:19:30;;;;;;;;;31.25;25.50;;;;;-147.17;100.00;-15917.19;5027031;28;53077;-54
2022/11/28 09:21:56;;;;;;;;;18.33;14.67;;;;;-147.17;100.00;-15917.19;5028133;28;52775;-54
2022/11/28 09:24:21;;;;;;;;;12.25;10.50;;;;;-147.17;100.00;-15917.19;5023776;28;51194;-53
2022/11/28 09:26:47;;;;;;;;;69.25;45.75;;;;;-147.17;100.00;-15917.19;5022670;28;51061;-55
2022/11/28 09:29:12;;;;;;;;;50.00;36.25;;;;;-147.17;100.00;-15917.19;5024239;28;52776;-54
2022/11/28 09:31:37;;;;;;;;;33.00;26.50;;;;;-147.17;100.00;-15917.19;5020376;28;51259;-53
2022/11/28 09:34:03;;;;;;;;;11.33;10.33;;;;;-147.17;100.00;-15917.19;5022500;28;51306;-56
2022/11/28 09:36:30;;;;;;;;;12.25;12.25;;;;;-147.17;100.00;-15917.19;5012800;28;51121;-53
2022/11/28 09:38:59;;;;;;;;;17.50;17.25;;;;;-147.17;100.00;-15917.19;5020204;28;51990;-53
2022/11/28 09:41:27;;;;;;;;;17.00;14.25;;;;;-147.17;100.00;-15917.19;5020448;28;51050;-53
2022/11/28 09:43:57;;;;;;;;;27.25;25.75;;;;;-147.17;100.00;-15917.19;5027781;28;51560;-52
2022/11/28 09:46:31;;;;;;;;;32.25;27.25;;;;;-147.17;100.00;-15917.19;5017073;28;51238;-54
2022/11/28 09:49:01;;;;;;;;;29.50;22.50;;;;;-147.17;100.00;-15917.19;5019422;28;51113;-52
2022/11/28 09:51:48;;;;;;;;;40.50;31.00;;;;;-147.17;100.00;-15917.19;5027276;28;51133;-54
2022/11/28 09:54:43;;;;;;;;;30.25;22.50;;;;;-147.17;100.00;-15917.19;5028875;28;51151;-54
2022/11/28 09:57:16;;;;;;;;;62.75;46.25;;;;;-147.17;100.00;-15917.19;5020585;28;51103;-56
2022/11/28 09:59:42;;;;;;;;;73.75;55.25;;;;;-147.17;100.00;-15917.19;5023273;28;52073;-54
2022/11/28 10:02:29;;;;;;;;;17.00;11.67;;;;;-147.17;100.00;-15917.19;5016258;28;51110;-53
2022/11/28 10:05:03;;;;;;;;;12.00;10.33;;;;;-147.17;100.00;-15917.19;5013373;28;51179;-55
2022/11/28 10:07:50;;;;;;;;;22.75;21.00;;;;;-147.17;100.00;-15917.19;5013193;28;51244;-54
2022/11/28 10:10:47;;;;;;;;;19.25;18.00;;;;;-147.17;100.00;-15917.19;5013064;28;51856;-56
2022/11/28 10:13:44;;;;;;;;;50.00;37.25;;;;;-147.17;100.00;-15917.19;5012712;28;51148;-53
2022/11/28 10:16:29;;;;;;;;;43.25;35.00;;;;;-147.17;100.00;-15917.19;5019437;28;51165;-54
2022/11/28 10:19:00;;;;;;;;;58.00;40.75;;;;;-147.17;100.00;-15917.19;5032799;28;51290;-54
2022/11/28 10:21:40;;;;;;;;;14.00;8.50;;;;;-147.17;100.00;-15917.19;5033079;28;51198;-55
2022/11/28 10:24:14;;;;;;;;;143.33;106.67;;;;;-147.17;100.00;-15917.19;5032413;28;51228;-54
2022/11/28 10:26:47;;;;;;;;;71.00;52.75;;;;;-147.17;100.00;-15917.19;5032684;28;51171;-55
2022/11/28 10:29:28;;;;;;;;;28.00;25.25;;;;;-147.17;100.00;-15917.19;5032590;28;51559;-55
2022/11/28 10:32:01;;;;;;;;;66.50;48.75;;;;;-147.17;100.00;-15917.19;5032125;28;51108;-55
2022/11/28 10:34:50;;;;;;;;;49.00;34.50;;;;;-147.17;100.00;-15917.19;5032655;28;51028;-56
2022/11/28 10:37:27;;;;;;;;;23.00;21.00;;;;;-147.17;100.00;-15917.19;5032465;28;50938;-54
2022/11/28 10:39:54;;;;;;;;;42.50;31.75;;;;;-147.17;100.00;-15917.19;5032419;28;50809;-56
2022/11/28 10:42:31;;;;;;;;;25.25;22.50;;;;;-147.17;100.00;-15917.19;5030393;28;54286;-53
2022/11/28 10:45:26;;;;;;;;;11.33;11.00;;;;;-147.17;100.00;-15917.19;5032398;28;51149;-55
2022/11/28 10:48:18;;;;;;;;;6.00;6.00;;;;;-147.17;100.00;-15917.19;5031237;28;51074;-54
2022/11/28 10:50:55;;;;;;;;;8.67;8.67;;;;;-147.17;100.00;-15917.19;5032575;28;51291;-55
2022/11/28 10:53:34;;;;;;;;;7.00;6.00;;;;;-147.17;100.00;-15917.19;5024154;28;52955;-53
2022/11/28 10:56:17;;;;;;;;;10.67;8.33;;;;;-147.17;100.00;-15917.19;5032171;28;51079;-56
2022/11/28 10:58:46;;;;;;;;;11.67;10.67;;;;;-147.17;100.00;-15917.19;5030607;28;51137;-55
2022/11/28 11:01:11;;;;;;;;;11.33;7.00;;;;;-147.17;100.00;-15917.19;5025328;28;51182;-54
2022/11/28 11:03:38;;;;;;;;;6.00;5.00;;;;;-147.17;100.00;-15917.19;5031751;28;51660;-53
2022/11/28 11:06:04;;;;;;;;;11.00;8.00;;;;;-147.17;100.00;-15917.19;5031996;28;51007;-54